Date,TemperatureHighF,TemperatureAvgF,TemperatureLowF,DewpointHighF,DewpointAvgF,DewpointLowF,HumidityHigh,HumidityAvg,HumidityLow,PressureMaxIn,PressureMinIn,WindSpeedMaxMPH,WindSpeedAvgMPH,GustSpeedMaxMPH,PrecipitationSumIn
2013-1-1,26,19,11,16,9,5,80,67,42,30.23,30.10,14,5,19,0.00
2013-1-2,27,17,9,16,10,5,86,75,51,30.25,30.14,14,4,16,0.00
2013-1-3,32,26,18,26,20,15,88,79,66,30.30,30.13,13,5,20,0.00
2013-1-4,37,24,12,23,17,9,89,78,57,30.29,30.19,19,7,23,0.00
2013-1-5,36,29,20,33,26,17,96,89,71,30.27,29.97,16,6,22,0.03
2013-1-6,36,27,17,33,24,16,94,86,76,30.35,29.94,17,6,21,0.00
2013-1-7,37,26,16,28,22,14,95,85,64,30.36,30.13,18,6,23,0.00
2013-1-8,41,32,24,34,28,23,93,84,72,30.18,30.05,16,6,18,0.00
2013-1-9,50,40,28,35,29,22,87,67,37,30.50,30.04,17,6,27,0.00
2013-1-10,44,35,24,41,29,21,98,78,52,30.50,29.88,9,2,14,0.18
2013-1-11,53,50,42,53,48,41,99,95,91,29.86,29.67,18,8,20,0.32
2013-1-12,52,42,31,48,39,28,94,88,74,29.96,29.72,20,6,21,0.02
2013-1-13,31,23,14,30,20,10,96,89,81,30.27,29.86,13,6,17,0.01
2013-1-14,25,17,12,16,12,8,88,81,65,30.47,30.27,9,2,12,0.00
2013-1-15,31,22,14,23,17,11,90,81,65,30.45,30.13,5,1,7,0.02
2013-1-16,36,27,16,29,22,14,94,82,64,30.13,29.88,19,6,26,0.01
2013-1-17,34,27,19,30,18,12,90,70,49,30.42,30.07,14,4,24,0.00
2013-1-18,41,30,17,30,24,14,91,78,64,30.45,29.96,21,8,30,0.04
2013-1-19,50,41,29,38,32,16,82,71,49,29.98,29.75,18,9,37,0.00
2013-1-20,29,18,13,16,7,4,71,63,54,30.30,29.94,20,7,29,0.00
2013-1-21,15,9,5,8,0,-5,85,66,51,30.32,30.17,17,8,25,0.00
2013-1-22,12,7,0,1,-3,-6,80,65,53,30.43,30.31,10,5,16,0.00
2013-1-23,22,16,11,16,7,0,89,67,57,30.38,30.14,21,6,23,0.00
2013-1-24,23,15,7,9,4,-2,73,62,43,30.65,30.35,13,4,22,0.00
2013-1-25,29,23,18,22,17,10,92,78,65,30.39,30.00,12,4,19,0.00
2013-1-26,29,21,11,21,12,7,84,69,49,30.41,30.18,11,2,15,0.00
2013-1-27,38,30,24,37,25,19,98,84,70,30.40,29.93,13,4,19,0.15
2013-1-28,49,45,38,49,45,37,99,98,95,29.93,29.81,16,5,26,0.10
2013-1-29,61,57,49,59,56,49,100,97,92,29.80,29.37,19,8,29,0.63
2013-1-30,51,37,21,51,35,17,100,95,81,29.64,29.18,21,7,28,0.39
2013-1-31,21,14,5,17,9,-1,88,80,74,30.21,29.65,21,10,27,0.00
2013-2-1,18,9,1,15,3,-4,91,77,69,30.42,30.21,15,7,20,0.00
2013-2-2,25,18,9,23,15,5,95,88,76,30.23,30.02,11,5,17,0.00
2013-2-3,23,18,11,20,14,6,93,84,72,30.09,29.99,17,4,20,0.00
2013-2-4,29,25,19,25,22,16,94,89,82,30.05,29.84,12,4,16,0.02
2013-2-5,32,25,12,29,22,11,95,90,83,30.10,29.81,14,4,18,0.00
2013-2-6,38,32,22,31,26,18,90,81,70,30.24,30.11,8,3,14,0.00
2013-2-7,37,34,32,36,32,29,98,95,89,30.12,29.83,11,2,15,0.36
2013-2-8,33,28,25,32,26,23,97,91,86,30.40,29.93,16,6,20,0.00
2013-2-9,34,30,25,30,26,23,93,85,81,30.40,30.09,14,3,19,0.00
2013-2-10,48,40,32,47,38,29,97,92,82,30.09,29.51,28,7,32,0.27
2013-2-11,44,34,29,39,27,24,82,76,71,30.05,29.55,24,11,36,0.00
2013-2-12,29,27,22,24,23,20,93,84,78,30.12,29.94,14,4,19,0.00
2013-2-13,44,33,22,34,29,21,96,85,64,29.94,29.73,11,3,14,0.00
2013-2-14,39,36,31,34,31,26,93,82,68,29.98,29.67,18,6,26,0.00
2013-2-15,31,28,21,29,20,11,94,71,51,30.18,29.98,12,6,18,0.00
2013-2-16,22,17,12,11,7,4,75,65,54,30.21,30.12,14,6,16,0.00
2013-2-17,30,20,9,20,10,3,85,65,42,30.25,30.02,9,2,12,0.00
2013-2-18,52,40,28,45,34,20,95,79,66,30.02,29.42,23,11,31,0.26
2013-2-19,28,16,10,25,11,5,89,80,74,30.22,29.60,21,11,29,0.00
2013-2-20,24,16,8,16,9,2,84,75,66,30.38,30.23,13,5,17,0.00
2013-2-21,30,25,17,25,20,13,95,81,78,30.39,29.97,13,4,23,0.00
2013-2-22,34,28,24,33,26,22,98,92,81,29.97,29.82,17,6,21,0.05
2013-2-23,27,25,20,24,20,17,89,83,72,29.99,29.93,8,4,14,0.00
2013-2-24,36,26,14,25,20,13,94,81,62,30.16,29.99,6,1,6,0.03
2013-2-25,43,33,24,31,27,21,89,78,61,30.18,29.92,7,2,14,0.00
2013-2-26,34,33,32,32,30,27,97,89,74,29.92,29.47,18,9,24,0.23
2013-2-27,33,32,32,32,31,30,98,95,91,29.70,29.50,10,4,15,0.04
2013-2-28,36,33,29,32,30,23,96,87,78,30.05,29.70,15,8,21,0.02
2013-3-1,30,28,26,27,24,22,89,87,79,30.17,30.04,18,9,23,0.00
2013-3-2,31,26,19,23,20,15,87,78,65,30.19,30.14,13,6,18,0.00
2013-3-3,33,24,15,18,15,12,89,69,43,30.16,30.09,9,2,11,0.00
2013-3-4,33,28,21,29,23,18,87,81,68,30.14,29.97,9,2,15,0.00
2013-3-5,33,31,29,32,30,28,98,95,87,29.97,29.77,11,4,17,0.20
2013-3-6,32,30,28,29,28,26,97,91,86,30.31,29.96,14,6,21,0.07
2013-3-7,39,31,24,28,26,22,91,81,62,30.42,30.30,6,2,7,0.00
2013-3-8,40,31,21,29,26,19,95,81,65,30.50,30.30,6,1,10,0.00
2013-3-9,41,36,29,36,32,25,91,84,77,30.30,29.84,9,2,17,0.02
2013-3-10,53,46,39,49,44,36,97,92,79,29.89,29.58,19,4,24,1.25
2013-3-11,47,38,32,46,37,30,98,95,89,29.81,29.56,15,7,21,0.10
2013-3-12,38,32,27,31,26,22,95,81,63,30.03,29.81,22,8,23,0.01
2013-3-13,32,28,24,23,19,16,84,71,52,30.34,30.04,14,7,23,0.00
2013-3-14,35,29,23,31,25,20,96,85,59,30.35,30.08,7,3,13,0.01
2013-3-15,44,36,29,40,34,28,97,92,83,30.09,29.71,9,3,17,0.02
2013-3-16,36,34,31,34,30,25,96,88,78,30.11,29.67,18,8,21,0.00
2013-3-17,40,33,28,27,24,21,82,72,57,30.19,29.97,12,5,20,0.00
2013-3-18,36,31,23,34,27,15,96,88,70,29.96,29.62,18,6,32,0.02
2013-3-19,35,26,18,20,16,11,79,68,51,30.11,29.84,21,10,30,0.00
2013-3-20,27,21,15,18,11,6,85,66,57,30.12,30.05,16,8,22,0.00
2013-3-21,33,23,13,19,13,8,82,68,51,30.08,30.01,12,4,16,0.00
2013-3-22,40,29,18,24,19,15,90,67,46,30.07,30.00,10,2,14,0.00
2013-3-23,44,34,26,26,24,23,91,71,46,30.13,30.00,11,4,15,0.00
2013-3-24,35,33,30,31,27,25,97,80,69,30.00,29.62,23,9,31,0.00
2013-3-25,35,33,30,31,28,26,93,84,74,30.07,29.67,15,7,23,0.00
2013-3-26,40,35,30,30,27,22,88,73,53,30.25,30.07,10,4,15,0.00
2013-3-27,42,36,29,29,25,20,88,67,42,30.32,30.26,10,2,13,0.00
2013-3-28,49,38,27,28,25,22,85,61,40,30.36,30.27,8,2,13,0.00
2013-3-29,54,43,30,31,26,21,83,55,34,30.31,30.20,8,2,13,0.00
2013-3-30,57,46,32,43,34,22,85,64,49,30.23,29.84,15,5,21,0.00
2013-3-31,58,47,37,45,39,27,97,75,38,29.87,29.70,23,7,25,0.02
2013-4-1,39,34,27,27,20,15,78,57,40,30.18,29.87,16,6,24,0.00
2013-4-2,44,33,21,21,17,12,83,56,30,30.30,30.18,17,4,25,0.00
2013-4-3,45,34,23,21,17,11,73,53,27,30.45,30.30,8,2,14,0.00
2013-4-4,58,42,26,27,22,19,77,49,23,30.32,29.98,7,2,15,0.00
2013-4-5,48,42,36,34,26,19,83,55,34,30.20,29.98,17,6,23,0.00
2013-4-6,69,53,33,49,34,26,80,52,32,30.13,29.61,23,10,42,0.07
2013-4-7,62,50,41,49,40,35,87,72,48,29.92,29.63,12,5,20,0.00
2013-4-8,69,57,42,56,49,36,98,77,60,29.94,29.64,20,7,34,0.52
2013-4-9,77,55,43,63,49,42,94,83,56,29.95,29.76,21,8,26,0.05
2013-4-10,44,42,39,43,41,38,98,96,92,29.91,29.77,22,10,28,0.47
2013-4-11,53,46,40,53,45,38,99,96,89,29.84,29.56,15,5,25,0.28
2013-4-12,43,39,36,39,35,33,95,86,77,29.87,29.58,17,7,21,0.06
2013-4-13,46,40,35,35,32,29,92,75,57,29.98,29.87,15,5,23,0.01
2013-4-14,72,54,40,53,42,34,81,67,43,29.98,29.65,17,5,29,0.00
2013-4-15,65,55,46,58,51,45,96,86,63,29.96,29.67,24,8,30,0.76
2013-4-16,56,47,42,45,39,35,96,76,50,30.24,29.92,12,4,16,0.10
2013-4-17,54,47,43,53,42,34,98,85,69,30.24,29.79,20,6,31,1.32
2013-4-18,63,56,42,60,55,37,99,95,81,29.77,29.43,16,6,29,2.07
2013-4-19,42,37,35,37,31,29,85,78,72,29.93,29.51,24,10,32,0.01
2013-4-20,46,38,31,30,26,22,86,65,44,30.42,29.94,10,4,19,0.00
2013-4-21,54,42,31,37,30,24,80,62,45,30.52,30.32,11,2,17,0.00
2013-4-22,67,52,38,43,37,33,84,60,33,30.32,30.03,10,2,16,0.00
2013-4-23,58,49,38,52,46,37,97,87,69,30.02,29.84,18,4,19,0.57
2013-4-24,49,41,35,37,34,28,96,77,50,30.14,29.90,12,6,18,0.05
2013-4-25,51,44,38,37,32,28,85,66,43,30.32,30.08,16,5,21,0.00
2013-4-26,66,51,37,48,40,30,85,67,49,30.34,30.23,18,6,24,0.00
2013-4-27,69,57,42,51,45,39,96,68,35,30.28,29.97,10,2,19,0.01
2013-4-28,64,57,53,55,53,51,98,88,72,29.96,29.79,9,2,10,0.03
2013-4-29,72,61,48,57,54,47,98,78,55,29.91,29.76,14,6,24,0.01
2013-4-30,84,70,58,63,58,53,86,68,41,29.91,29.78,15,9,24,0.00
2013-5-1,84,72,59,60,56,49,90,60,31,30.08,29.91,15,4,17,0.00
2013-5-2,65,55,44,55,46,38,81,71,60,30.15,30.06,25,9,32,0.00
2013-5-3,54,47,41,51,44,38,96,91,82,30.09,29.91,18,10,25,0.10
2013-5-4,73,60,50,54,51,49,94,74,47,30.00,29.90,7,3,19,0.00
2013-5-5,73,60,49,53,46,43,90,63,35,30.00,29.91,14,6,23,0.00
2013-5-6,74,62,54,46,42,36,73,50,26,29.99,29.92,15,5,17,0.00
2013-5-7,77,63,49,50,44,39,72,51,30,30.01,29.93,11,3,16,0.00
2013-5-8,81,67,50,54,48,42,84,54,25,30.00,29.91,10,2,11,0.00
2013-5-9,74,63,57,61,55,48,97,75,54,29.93,29.78,11,2,20,0.36
2013-5-10,61,51,45,60,49,43,98,92,85,29.96,29.73,17,6,22,0.00
2013-5-11,60,51,43,52,40,28,95,71,32,30.03,29.83,20,5,30,0.00
2013-5-12,55,46,36,33,29,25,77,53,31,30.11,30.04,15,4,21,0.00
2013-5-13,67,53,36,39,30,23,80,47,21,30.17,30.00,9,2,15,0.00
2013-5-14,90,72,54,61,51,38,65,49,27,29.99,29.62,16,7,23,0.00
2013-5-15,86,75,63,59,54,46,68,49,25,29.78,29.63,16,5,20,0.00
2013-5-16,85,70,55,53,47,41,85,49,22,29.92,29.77,8,2,14,0.00
2013-5-17,82,67,60,65,57,46,94,72,48,29.98,29.90,12,2,25,0.35
2013-5-18,81,70,60,65,63,60,98,80,57,30.02,29.90,6,1,12,0.00
2013-5-19,88,76,63,68,64,61,94,71,43,29.92,29.70,12,2,16,0.00
2013-5-20,90,79,65,70,63,56,93,63,33,29.77,29.65,18,8,27,0.76
2013-5-21,80,71,63,69,65,60,95,81,63,29.73,29.61,16,6,21,0.25
2013-5-22,72,67,61,67,62,56,97,85,60,29.72,29.58,11,4,21,1.22
2013-5-23,62,52,42,57,47,36,97,84,70,30.25,29.72,18,9,28,0.04
2013-5-24,60,49,38,38,36,33,86,63,40,30.41,30.25,11,5,18,0.00
2013-5-25,58,51,44,49,43,36,83,74,53,30.38,30.25,9,2,9,0.00
2013-5-26,64,56,46,55,48,40,94,76,51,30.28,30.09,8,2,13,0.02
2013-5-27,65,60,56,63,59,54,98,94,88,30.10,29.80,9,2,15,0.39
2013-5-28,77,68,61,70,66,60,99,91,78,29.85,29.71,16,6,26,0.27
2013-5-29,84,74,63,73,66,61,96,79,61,29.91,29.74,10,5,17,0.16
2013-5-30,85,75,63,72,68,61,95,78,59,29.90,29.75,21,8,34,0.01
2013-5-31,77,70,63,70,66,62,97,88,72,29.84,29.67,16,6,24,0.03
2013-6-1,73,68,62,68,64,60,96,88,78,29.73,29.64,18,7,26,0.05
2013-6-2,63,56,47,61,53,45,95,89,83,30.03,29.70,9,4,18,0.07
2013-6-3,68,56,43,48,45,42,98,68,46,30.11,30.01,7,1,10,0.05
2013-6-4,74,62,47,51,48,43,89,62,39,30.13,30.04,10,2,12,0.03
2013-6-5,78,66,56,55,51,50,83,61,37,30.05,29.86,13,4,15,0.03
2013-6-6,68,62,55,56,52,47,88,70,52,29.87,29.82,15,6,19,0.01
2013-6-7,70,61,52,54,49,43,88,67,42,29.91,29.85,19,6,21,0.02
2013-6-8,78,64,49,54,47,43,82,56,35,29.97,29.88,12,2,15,0.00
2013-6-9,82,72,60,64,56,47,90,60,42,29.96,29.76,11,4,20,0.02
2013-6-10,78,71,64,67,64,62,98,82,60,29.82,29.70,7,2,12,0.02
2013-6-11,86,74,62,69,64,60,96,72,47,29.89,29.76,10,2,10,0.00
2013-6-12,92,76,64,74,70,63,97,82,53,29.85,29.54,22,4,35,0.44
2013-6-13,77,68,60,63,58,53,98,74,52,30.00,29.59,19,6,25,0.28
2013-6-14,80,66,54,60,55,51,90,70,47,30.09,29.97,11,4,15,0.00
2013-6-15,82,70,60,70,64,55,90,81,64,30.02,29.84,15,2,24,0.04
2013-6-16,83,73,65,69,66,63,94,79,57,29.89,29.82,12,3,23,0.00
2013-6-17,88,76,64,69,63,55,98,67,34,29.90,29.80,12,3,19,0.00
2013-6-18,73,65,58,61,56,49,92,75,61,30.01,29.84,16,7,21,0.00
2013-6-19,80,68,56,58,54,49,81,61,42,30.10,30.01,9,3,14,0.00
2013-6-20,90,76,62,67,60,51,75,59,37,30.11,30.01,8,2,11,0.00
2013-6-21,86,74,68,70,66,62,91,77,55,30.11,29.84,11,4,26,0.09
2013-6-22,79,73,67,74,69,65,93,86,72,30.05,29.92,15,4,18,0.01
2013-6-23,88,75,66,74,69,65,95,82,63,30.01,29.89,11,4,20,0.10
2013-6-24,86,72,67,76,68,65,97,89,70,30.04,29.83,11,4,27,0.47
2013-6-25,86,77,68,76,71,65,97,83,65,29.91,29.76,13,4,20,0.00
2013-6-26,81,73,66,72,68,65,97,85,69,29.80,29.67,8,3,19,0.48
2013-6-27,90,78,66,75,69,63,98,76,51,29.74,29.64,14,3,21,0.00
2013-6-28,82,73,66,67,63,59,91,72,46,29.66,29.56,13,4,26,0.03
2013-6-29,72,67,64,65,62,56,97,84,68,29.70,29.54,15,5,19,0.00
2013-6-30,79,69,62,62,56,43,91,67,38,29.92,29.70,22,8,28,0.01
2013-7-1,76,69,59,56,53,48,85,59,38,30.00,29.92,22,9,27,0.00
2013-7-2,67,64,61,58,57,54,87,76,65,30.02,29.97,17,7,18,0.00
2013-7-3,71,65,61,65,61,58,96,89,80,30.04,29.97,9,3,11,0.00
2013-7-4,81,70,58,66,62,58,98,77,56,30.08,30.00,12,3,15,0.01
2013-7-5,84,74,60,68,64,59,96,74,51,30.06,29.97,7,2,12,0.00
2013-7-6,80,73,66,70,67,65,95,82,65,30.02,29.94,4,2,10,0.00
2013-7-7,87,77,67,74,70,65,96,80,60,29.98,29.90,10,3,13,0.00
2013-7-8,87,77,72,75,72,69,94,84,65,30.00,29.90,15,5,20,0.09
2013-7-9,84,78,72,79,74,71,98,90,80,29.95,29.82,7,2,10,0.04
2013-7-10,87,78,63,76,69,59,98,77,53,29.95,29.78,10,3,24,0.00
2013-7-11,81,71,62,63,57,51,93,65,37,30.05,29.96,11,2,18,0.00
2013-7-12,85,71,59,62,57,52,82,63,39,30.11,30.02,7,2,11,0.00
2013-7-13,86,75,62,65,61,57,85,64,41,30.11,30.05,8,2,11,0.00
2013-7-14,91,79,68,71,68,65,91,71,47,30.15,30.08,9,3,12,0.00
2013-7-15,92,82,73,77,73,68,92,76,56,30.21,30.14,8,2,12,0.00
2013-7-16,92,82,72,76,73,71,94,76,56,30.26,30.19,8,2,16,0.00
2013-7-17,94,83,72,76,73,70,94,73,49,30.27,30.12,9,2,12,0.00
2013-7-18,94,84,74,78,75,72,95,75,52,30.14,29.92,11,3,17,0.00
2013-7-19,95,85,74,76,73,71,93,70,48,29.92,29.72,19,6,24,0.01
2013-7-20,90,80,71,75,66,58,95,66,38,29.87,29.75,12,3,14,0.09
2013-7-21,87,78,69,72,69,66,91,75,56,29.90,29.80,9,3,13,0.00
2013-7-22,87,77,69,70,68,66,94,76,52,29.82,29.70,9,2,12,0.00
2013-7-23,80,71,62,71,64,56,96,79,54,29.92,29.63,15,4,24,0.20
2013-7-24,74,66,55,56,53,50,88,65,44,30.02,29.91,13,4,18,0.00
2013-7-25,80,68,53,59,55,51,94,68,42,30.08,30.00,7,1,10,0.00
2013-7-26,74,66,62,67,61,56,97,84,66,30.01,29.85,14,4,20,0.02
2013-7-27,66,61,56,62,54,47,94,77,57,29.90,29.84,9,3,17,0.00
2013-7-28,69,60,50,54,50,47,93,72,49,30.01,29.87,14,3,16,0.02
2013-7-29,78,64,52,60,55,49,93,74,48,30.14,30.01,10,2,15,0.00
2013-7-30,70,64,57,65,60,53,92,86,74,30.14,30.03,4,1,9,0.04
2013-7-31,74,69,65,68,66,63,99,90,78,30.03,29.92,6,1,10,0.03
2013-8-1,80,69,59,64,58,52,99,71,40,29.95,29.91,15,2,17,0.00
2013-8-2,84,71,62,71,65,57,97,84,63,29.91,29.81,15,4,20,0.38
2013-8-3,81,72,64,67,60,53,98,68,39,30.07,29.90,15,3,16,0.00
2013-8-4,77,68,57,61,57,52,92,70,45,30.14,30.07,12,2,18,0.00
2013-8-5,72,66,58,66,61,54,92,84,75,30.08,29.84,12,3,15,0.06
2013-8-6,82,72,64,72,68,63,98,88,71,29.88,29.80,8,3,12,0.00
2013-8-7,86,77,69,76,71,65,98,84,62,29.88,29.76,9,4,15,0.00
2013-8-8,79,72,67,65,60,53,89,68,45,29.96,29.88,14,5,18,0.00
2013-8-9,82,72,58,67,61,55,90,70,50,29.99,29.93,9,2,12,0.00
2013-8-10,83,73,64,67,61,56,94,67,43,30.07,29.99,9,2,11,0.00
2013-8-11,83,72,60,66,60,57,88,68,46,30.09,30.00,16,2,16,0.00
2013-8-12,84,73,64,71,66,61,95,79,56,30.01,29.82,12,4,16,0.03
2013-8-13,72,66,56,67,54,45,97,69,41,30.11,29.87,15,6,23,0.00
2013-8-14,73,62,53,55,51,48,92,70,40,30.18,30.11,8,2,13,0.00
2013-8-15,74,64,52,58,54,50,93,72,51,30.15,30.07,8,2,11,0.00
2013-8-16,81,70,58,59,54,49,89,61,33,30.15,30.09,9,1,14,0.00
2013-8-17,82,70,56,60,56,52,89,62,37,30.19,30.11,7,2,13,0.00
2013-8-18,84,72,60,62,59,56,95,66,40,30.16,30.05,10,2,11,0.00
2013-8-19,85,73,58,65,61,56,93,69,46,30.09,29.99,8,2,11,0.00
2013-8-20,86,75,63,67,64,61,93,73,49,30.09,29.99,8,3,14,0.00
2013-8-21,89,77,64,70,67,63,96,73,48,30.06,29.94,11,4,15,0.00
2013-8-22,74,70,66,70,68,65,97,93,81,30.10,29.96,12,2,16,0.73
2013-8-23,83,71,62,69,60,53,100,72,36,30.12,30.05,13,3,17,0.01
2013-8-24,84,73,61,65,61,55,85,69,49,30.22,30.12,7,2,12,0.00
2013-8-25,86,74,62,70,64,56,86,71,53,30.23,30.10,10,3,13,0.00
2013-8-26,89,76,64,75,69,62,91,80,63,30.13,29.97,11,4,16,0.00
2013-8-27,92,81,71,77,73,69,94,77,59,29.97,29.82,13,5,19,0.00
2013-8-28,86,78,70,74,70,67,94,76,65,29.98,29.80,10,5,16,0.00
2013-8-29,90,78,70,72,68,64,97,74,46,30.03,29.93,7,1,12,0.00
2013-8-30,94,78,67,78,70,62,95,80,49,29.93,29.72,23,4,40,0.33
2013-8-31,80,73,69,73,69,67,95,89,79,29.80,29.72,14,4,16,0.01
2013-9-1,84,74,65,72,69,65,99,85,63,29.76,29.70,7,2,18,0.35
2013-9-2,79,70,60,68,64,59,97,82,54,29.94,29.73,13,3,16,0.01
2013-9-3,75,65,56,59,56,54,95,74,51,30.05,29.94,8,1,13,0.00
2013-9-4,82,68,55,62,58,54,97,74,45,30.10,30.01,7,1,13,0.00
2013-9-5,76,68,63,66,58,50,92,71,49,30.19,30.07,14,4,16,0.00
2013-9-6,85,71,59,68,60,50,89,68,54,30.18,29.98,6,2,9,0.00
2013-9-7,87,74,63,67,65,62,95,75,47,29.98,29.85,11,3,16,0.00
2013-9-8,84,76,69,71,68,66,90,79,62,29.95,29.88,11,4,16,0.00
2013-9-9,94,79,66,76,71,65,97,78,52,29.91,29.78,8,3,13,0.00
2013-9-10,95,83,71,73,68,66,91,64,39,29.97,29.85,14,5,23,0.00
2013-9-11,92,79,71,71,69,66,93,71,45,30.00,29.93,16,4,18,0.00
2013-9-12,82,72,64,69,62,52,94,72,38,30.02,29.89,16,5,29,0.00
2013-9-13,67,60,51,57,48,43,87,66,42,30.12,30.02,21,7,24,0.00
2013-9-14,70,58,47,48,44,40,92,64,34,30.17,30.02,8,2,11,0.00
2013-9-15,66,58,52,59,52,43,96,81,65,30.11,29.93,9,3,13,0.25
2013-9-16,65,59,52,58,52,47,97,78,55,30.31,30.11,13,6,21,0.00
2013-9-17,72,61,49,55,52,46,91,73,52,30.30,30.09,6,1,13,0.00
2013-9-18,82,67,57,67,61,53,95,82,61,30.09,29.89,12,2,24,0.06
2013-9-19,92,77,68,73,70,66,97,80,49,29.93,29.75,14,5,16,0.02
2013-9-20,77,68,56,71,62,53,97,83,63,29.82,29.73,9,4,15,0.42
2013-9-21,67,58,51,53,49,46,96,74,50,29.92,29.78,11,4,18,0.00
2013-9-22,68,57,47,50,48,44,89,73,51,30.02,29.92,13,2,14,0.00
2013-9-23,73,58,46,53,47,43,88,70,36,30.09,29.99,9,2,10,0.00
2013-9-24,75,60,48,55,50,45,91,71,39,30.03,29.88,8,2,12,0.00
2013-9-25,74,62,51,55,50,48,91,69,43,29.93,29.87,12,4,16,0.00
2013-9-26,80,65,54,57,53,47,92,68,31,30.04,29.92,7,1,10,0.00
2013-9-27,83,68,54,57,51,46,83,59,32,30.13,30.01,9,1,12,0.00
2013-9-28,85,70,54,62,55,46,88,62,39,30.05,29.86,19,5,28,0.00
2013-9-29,73,61,51,65,52,44,97,77,42,30.02,29.88,13,4,19,0.25
2013-9-30,76,61,45,55,50,44,98,72,37,29.99,29.85,9,2,12,0.01
2013-10-1,79,68,58,66,63,54,98,85,62,29.95,29.87,13,5,20,0.00
2013-10-2,82,70,63,66,58,47,98,70,36,30.04,29.94,7,2,15,0.00
2013-10-3,79,69,63,70,67,62,99,92,74,29.94,29.80,11,4,15,0.40
2013-10-4,85,71,63,72,67,62,96,86,57,29.95,29.87,9,3,13,0.00
2013-10-5,83,71,67,72,68,66,98,91,66,29.90,29.72,9,4,16,0.98
2013-10-6,68,54,46,67,47,40,98,78,55,29.77,29.67,13,4,20,0.03
2013-10-7,68,54,43,49,45,41,97,76,46,30.07,29.76,12,3,15,0.00
2013-10-8,77,60,46,53,48,44,95,69,35,30.17,30.06,7,1,10,0.00
2013-10-9,74,60,47,52,47,42,91,67,33,30.22,30.10,5,1,9,0.00
2013-10-10,76,62,48,56,51,45,90,69,47,30.15,30.01,5,1,10,0.00
2013-10-11,77,64,53,57,52,48,86,68,45,30.05,29.92,11,2,16,0.00
2013-10-12,72,62,54,63,55,44,89,77,65,30.16,29.94,13,3,16,0.00
2013-10-13,64,53,44,45,41,35,90,66,35,30.38,30.16,11,2,16,0.00
2013-10-14,65,53,42,48,44,40,93,74,45,30.38,30.11,8,2,19,0.00
2013-10-15,63,56,50,62,53,45,97,87,72,30.10,29.76,12,4,17,0.13
2013-10-16,53,50,43,47,45,41,92,83,77,29.93,29.85,12,4,18,0.00
2013-10-17,55,48,42,47,45,39,97,87,65,29.92,29.82,9,2,15,0.16
2013-10-18,49,44,38,44,40,37,97,86,70,29.97,29.84,9,2,15,0.00
2013-10-19,54,47,41,41,39,34,93,74,48,29.94,29.79,13,5,27,0.01
2013-10-20,66,52,39,46,42,37,93,71,45,29.88,29.71,14,5,24,0.00
2013-10-21,56,45,33,48,35,25,89,68,47,29.97,29.79,12,4,21,0.01
2013-10-22,41,34,28,36,31,25,97,88,63,30.00,29.91,5,1,9,0.18
2013-10-23,43,37,30,36,31,28,97,80,55,30.03,29.90,10,3,17,0.01
2013-10-24,42,38,33,33,28,23,85,68,49,30.30,30.02,15,4,17,0.00
2013-10-25,51,38,26,32,28,23,93,69,42,30.42,30.09,15,4,20,0.00
2013-10-26,54,45,36,38,32,29,80,62,47,30.08,29.87,18,6,23,0.00
2013-10-27,55,42,29,36,31,27,93,68,41,30.08,29.97,14,3,17,0.00
2013-10-28,58,45,33,45,38,29,87,77,60,30.32,30.06,11,4,19,0.00
2013-10-29,55,47,38,47,41,36,93,82,60,30.33,30.12,6,2,11,0.00
2013-10-30,63,53,45,63,52,44,100,97,93,30.12,29.75,12,1,20,0.98
2013-10-31,64,59,46,64,58,43,99,96,90,29.75,29.19,15,7,27,1.05
2013-11-1,50,46,44,45,43,41,96,88,74,29.73,29.39,19,5,24,0.06
2013-11-2,48,42,37,43,39,36,98,90,76,30.13,29.73,10,2,14,0.01
2013-11-3,53,42,32,42,36,31,99,82,55,30.30,30.13,9,1,13,0.00
2013-11-4,56,49,41,45,41,37,89,77,59,30.27,30.11,16,5,24,0.00
2013-11-5,55,52,50,52,48,45,96,87,81,30.26,29.96,14,5,22,0.05
2013-11-6,56,47,35,55,45,30,97,92,81,30.16,29.79,18,8,23,0.99
2013-11-7,44,35,28,36,31,27,94,84,65,30.26,30.16,12,3,19,0.01
2013-11-8,49,39,28,36,32,26,96,78,55,30.35,29.98,13,4,21,0.00
2013-11-9,60,50,42,42,39,32,79,67,50,30.11,29.88,17,9,29,0.00
2013-11-10,48,40,33,35,32,29,86,72,54,30.33,30.12,11,4,16,0.00
2013-11-11,47,38,26,40,32,18,96,81,66,30.48,30.09,19,7,26,0.08
2013-11-12,32,26,22,22,19,17,83,75,60,30.70,30.49,13,5,18,0.00
2013-11-13,38,28,18,26,21,15,90,74,53,30.62,30.21,15,7,21,0.00
2013-11-14,50,38,28,31,27,23,82,67,46,30.21,29.97,16,7,23,0.00
2013-11-15,48,41,34,39,34,29,86,77,61,30.00,29.94,11,6,16,0.00
2013-11-16,59,52,40,57,50,36,97,92,84,29.95,29.58,24,11,31,0.16
2013-11-17,68,56,43,64,53,37,97,88,76,29.73,29.15,27,12,34,0.64
2013-11-18,43,38,30,38,32,27,87,77,60,30.26,29.74,20,7,26,0.02
2013-11-19,42,31,25,32,27,22,91,85,68,30.37,30.25,6,1,8,0.00
2013-11-20,42,36,28,39,32,26,96,85,69,30.29,30.08,14,2,19,0.25
2013-11-21,49,45,40,46,43,39,99,93,85,30.17,30.10,7,2,11,0.19
2013-11-22,45,37,27,44,34,25,98,88,72,30.47,30.17,14,5,21,0.07
2013-11-23,27,22,15,24,12,6,90,69,52,30.72,30.44,17,7,27,0.00
2013-11-24,26,17,10,9,7,5,84,67,43,30.75,30.57,8,4,12,0.00
2013-11-25,32,27,19,26,20,13,88,76,61,30.41,30.12,16,8,22,0.00
2013-11-26,36,29,18,28,23,7,89,77,60,30.15,30.01,17,5,26,0.00
2013-11-27,27,20,13,16,11,6,79,68,53,30.29,30.14,15,6,19,0.00
2013-11-28,35,27,20,19,17,14,82,67,53,30.50,30.20,15,5,19,0.00
2013-11-29,35,26,15,24,19,13,94,77,55,30.64,30.42,9,1,12,0.00
2013-11-30,50,37,27,33,28,23,86,73,49,30.41,30.06,11,5,17,0.00
2013-12-1,44,35,27,36,31,25,93,86,70,30.10,29.97,8,2,10,0.00
2013-12-2,41,37,33,35,32,30,96,83,64,29.97,29.74,7,2,12,0.13
2013-12-3,49,44,36,49,43,35,98,97,96,29.73,29.65,10,3,16,0.00
2013-12-4,56,50,41,55,49,38,99,97,86,29.73,29.49,19,4,24,0.00
2013-12-5,39,26,21,36,21,14,90,81,74,30.27,29.70,13,7,21,0.00
2013-12-6,21,18,12,14,12,7,82,76,67,30.56,30.24,10,4,13,0.00
2013-12-7,20,14,8,8,6,3,83,71,53,30.71,30.56,11,3,12,0.00
2013-12-8,25,21,12,23,17,8,95,85,74,30.61,29.97,10,3,19,0.00
2013-12-9,25,17,3,24,12,-3,95,82,70,30.27,29.96,14,6,20,0.00
2013-12-10,23,12,-3,14,6,-7,87,74,62,30.34,30.09,13,6,27,0.00
2013-12-11,20,13,-3,16,8,-7,93,82,72,30.61,30.30,12,4,16,0.01
2013-12-12,22,9,-7,13,4,-10,89,79,67,30.59,30.26,14,4,18,0.00
2013-12-13,29,21,12,25,18,9,95,85,74,30.25,30.10,7,2,10,0.01
2013-12-14,30,28,19,28,26,17,96,93,87,30.10,29.88,14,5,18,0.00
2013-12-15,18,13,10,16,9,7,93,83,78,30.15,29.97,11,6,20,0.00
2013-12-16,21,17,11,18,14,8,95,88,77,30.17,30.04,5,1,12,0.00
2013-12-17,33,25,17,28,21,16,96,87,73,30.12,29.98,12,6,19,0.00
2013-12-18,34,24,13,31,19,10,89,81,65,30.18,29.86,19,6,24,0.00
2013-12-19,40,36,32,37,34,30,98,92,85,29.93,29.77,7,2,10,0.05
2013-12-20,39,35,32,39,35,32,99,98,98,29.80,29.70,10,3,13,0.15
2013-12-21,34,32,29,34,32,29,99,98,96,29.84,29.56,14,5,23,0.22
2013-12-22,34,30,26,33,29,24,98,94,88,30.13,29.57,15,3,18,0.10
2013-12-23,26,12,0,24,8,-5,92,85,75,30.50,30.14,0,0,0,0.00
2013-12-24,18,8,-2,14,4,-5,88,82,75,30.62,30.40,0,0,0,0.00
2013-12-25,27,24,18,26,21,13,95,88,79,30.40,30.13,13,5,17,0.00
2013-12-26,34,26,13,30,22,10,90,84,78,30.32,30.14,14,6,22,0.00
2013-12-27,44,35,26,35,31,25,97,84,65,30.30,30.11,13,5,20,0.01
2013-12-28,51,39,32,40,34,29,92,82,66,30.11,29.85,12,6,17,0.00
2013-12-29,36,28,16,32,26,11,95,89,80,30.18,29.77,15,6,19,0.00
2013-12-30,15,10,2,10,5,-2,90,81,73,30.35,30.18,8,3,14,0.00
2013-12-31,15,9,0,12,6,-3,90,88,81,30.41,30.21,10,3,13,0.00
2014-1-1,22,19,15,19,17,13,93,89,84,30.30,30.15,16,5,19,0.00
2014-1-2,20,15,1,18,12,-2,94,89,81,30.43,30.10,13,6,24,0.00